createdAt,value
2018-09-17T00:02:29.198Z,14.25
2018-09-17T00:05:32.947Z,14.23
2018-09-17T00:08:36.507Z,14.13
2018-09-17T00:11:40.312Z,14.09
2018-09-17T00:14:44.047Z,14.25
2018-09-17T00:17:47.736Z,14.34
2018-09-17T00:20:51.332Z,14.14
2018-09-17T00:23:54.972Z,14.09
2018-09-17T00:26:58.516Z,14.28
2018-09-17T00:30:02.208Z,14.13
2018-09-17T00:33:05.808Z,14.20
2018-09-17T00:36:09.568Z,14.24
2018-09-17T00:39:13.554Z,14.08
2018-09-17T00:42:17.272Z,14.28
2018-09-17T00:45:20.997Z,14.45
2018-09-17T00:48:24.772Z,14.36
2018-09-17T00:51:28.448Z,14.29
2018-09-17T00:54:32.045Z,14.36
2018-09-17T00:57:35.660Z,14.36
2018-09-17T01:00:39.260Z,14.36
2018-09-17T01:03:42.852Z,14.54
2018-09-17T01:06:46.472Z,14.47
2018-09-17T01:09:50.131Z,14.39
2018-09-17T01:12:53.761Z,14.33
2018-09-17T01:15:57.471Z,14.27
2018-09-17T01:19:01.052Z,14.21
2018-09-17T01:22:04.732Z,14.18
2018-09-17T01:25:08.367Z,14.01
2018-09-17T01:28:11.991Z,13.91
2018-09-17T01:31:15.616Z,13.85
2018-09-17T01:34:19.296Z,13.82
2018-09-17T01:37:22.973Z,13.94
2018-09-17T01:40:26.692Z,13.82
2018-09-17T01:43:30.358Z,13.96
2018-09-17T01:46:34.005Z,13.81
2018-09-17T01:49:37.575Z,13.82
2018-09-17T01:52:41.260Z,13.77
2018-09-17T01:55:44.837Z,13.75
2018-09-17T01:58:48.845Z,13.62
2018-09-17T02:01:52.514Z,13.56
2018-09-17T02:04:56.185Z,13.47
2018-09-17T02:07:59.712Z,13.47
2018-09-17T02:11:03.312Z,13.51
2018-09-17T02:14:07.062Z,13.54
2018-09-17T02:17:10.666Z,13.46
2018-09-17T02:20:14.223Z,13.43
2018-09-17T02:23:17.891Z,13.35
2018-09-17T02:26:21.561Z,13.46
2018-09-17T02:29:25.248Z,13.34
2018-09-17T02:32:28.899Z,13.38
2018-09-17T02:35:32.606Z,13.45
2018-09-17T02:38:36.297Z,13.50
2018-09-17T02:41:39.867Z,13.50
2018-09-17T02:44:43.654Z,13.34
2018-09-17T02:47:47.239Z,13.33
2018-09-17T02:50:50.861Z,13.24
2018-09-17T02:53:54.772Z,13.35
2018-09-17T02:56:58.302Z,13.47
2018-09-17T03:00:01.901Z,13.55
2018-09-17T03:03:05.685Z,13.61
2018-09-17T03:06:09.198Z,13.54
2018-09-17T03:09:12.745Z,13.46
2018-09-17T03:12:16.400Z,13.54
2018-09-17T03:15:31.198Z,13.55
2018-09-17T03:18:46.036Z,13.55
2018-09-17T03:21:49.716Z,13.51
2018-09-17T03:24:53.387Z,13.53
2018-09-17T03:27:57.050Z,13.50
2018-09-17T03:31:00.732Z,13.52
2018-09-17T03:34:04.442Z,13.62
2018-09-17T03:37:08.110Z,13.46
2018-09-17T03:40:11.695Z,13.44
2018-09-17T03:43:15.446Z,13.48
2018-09-17T03:46:19.237Z,13.35
2018-09-17T03:49:22.810Z,13.43
2018-09-17T03:52:26.453Z,13.49
2018-09-17T03:55:30.111Z,13.54
2018-09-17T03:58:33.711Z,13.46
2018-09-17T04:01:37.443Z,13.48
2018-09-17T04:04:41.385Z,13.46
2018-09-17T04:07:44.962Z,13.37
2018-09-17T04:10:48.528Z,13.32
2018-09-17T04:13:52.135Z,13.37
2018-09-17T04:16:55.772Z,13.34
2018-09-17T04:20:00.287Z,13.34
2018-09-17T04:23:04.047Z,13.27
2018-09-17T04:26:09.886Z,13.37
2018-09-17T04:29:13.467Z,13.38
2018-09-17T04:32:17.216Z,13.29
2018-09-17T04:35:20.987Z,13.23
2018-09-17T04:38:24.702Z,13.20
2018-09-17T04:41:28.328Z,13.20
2018-09-17T04:44:31.915Z,13.19
2018-09-17T04:47:35.777Z,13.14
2018-09-17T04:50:39.630Z,13.20
2018-09-17T04:53:44.192Z,13.29
2018-09-17T04:56:47.876Z,13.20
2018-09-17T04:59:51.551Z,13.33
2018-09-17T05:02:55.336Z,13.31
2018-09-17T05:05:58.971Z,13.40
2018-09-17T05:09:02.595Z,13.77
2018-09-17T05:12:06.795Z,13.61
2018-09-17T05:15:10.474Z,13.51
2018-09-17T05:18:14.136Z,13.54
2018-09-17T05:21:17.761Z,13.64
2018-09-17T05:24:21.335Z,13.80
2018-09-17T05:27:25.023Z,13.88
2018-09-17T05:30:28.586Z,14.04
2018-09-17T05:33:32.331Z,14.26
2018-09-17T05:36:36.056Z,14.32
2018-09-17T05:39:39.701Z,14.37
2018-09-17T05:42:43.393Z,14.52
2018-09-17T05:45:47.063Z,14.70
2018-09-17T05:48:50.752Z,14.77
2018-09-17T05:51:54.487Z,14.97
2018-09-17T05:54:58.137Z,15.19
2018-09-17T05:58:01.917Z,15.41
2018-09-17T06:01:05.648Z,15.78
2018-09-17T06:04:09.362Z,15.81
2018-09-17T06:07:13.026Z,16.12
2018-09-17T06:10:17.508Z,16.34
2018-09-17T06:13:21.127Z,16.62
2018-09-17T06:16:24.791Z,16.91
2018-09-17T06:19:28.518Z,16.71
2018-09-17T06:22:32.195Z,16.64
2018-09-17T06:25:35.911Z,16.56
2018-09-17T06:28:39.531Z,16.47
2018-09-17T06:31:43.177Z,16.36
2018-09-17T06:34:46.764Z,16.34
2018-09-17T06:37:50.381Z,16.24
2018-09-17T06:40:53.936Z,16.22
2018-09-17T06:43:57.661Z,16.06
2018-09-17T06:47:01.242Z,16.15
2018-09-17T06:50:05.015Z,16.03
2018-09-17T06:53:08.708Z,16.01
2018-09-17T06:56:12.343Z,16.19
2018-09-17T06:59:15.992Z,16.19
2018-09-17T07:02:19.592Z,16.27
2018-09-17T07:05:23.336Z,16.22
2018-09-17T07:08:27.003Z,16.36
2018-09-17T07:11:30.610Z,16.64
2018-09-17T07:14:34.266Z,16.75
2018-09-17T07:17:38.064Z,16.85
2018-09-17T07:20:41.996Z,17.00
2018-09-17T07:23:45.676Z,17.04
2018-09-17T07:26:49.302Z,17.23
2018-09-17T07:29:52.911Z,17.36
2018-09-17T07:32:56.489Z,17.33
2018-09-17T07:36:00.193Z,17.63
2018-09-17T07:39:04.448Z,17.76
2018-09-17T07:42:08.031Z,18.05
2018-09-17T07:45:11.803Z,18.20
2018-09-17T07:48:15.563Z,18.18
2018-09-17T07:51:19.261Z,18.39
2018-09-17T07:54:23.041Z,18.28
2018-09-17T07:57:26.688Z,18.58
2018-09-17T08:00:30.367Z,18.65
2018-09-17T08:03:33.935Z,18.47
2018-09-17T08:06:37.648Z,18.35
2018-09-17T08:09:41.383Z,18.37
2018-09-17T08:12:44.956Z,18.33
2018-09-17T08:15:48.665Z,18.08
2018-09-17T08:18:52.430Z,18.20
2018-09-17T08:21:56.062Z,18.02
2018-09-17T08:24:59.666Z,17.93
2018-09-17T08:28:03.348Z,18.24
2018-09-17T08:31:07.288Z,18.15
2018-09-17T08:34:11.013Z,18.33
2018-09-17T08:37:14.645Z,18.54
2018-09-17T08:40:18.272Z,18.79
2018-09-17T08:43:21.975Z,19.26
2018-09-17T08:46:25.762Z,19.25
2018-09-17T08:49:29.407Z,19.67
2018-09-17T08:52:33.207Z,19.40
2018-09-17T08:55:42.110Z,19.83
2018-09-17T08:58:50.945Z,19.96
2018-09-17T09:01:59.656Z,19.72
2018-09-17T09:05:08.684Z,19.81
2018-09-17T09:08:12.413Z,20.44
2018-09-17T09:11:16.232Z,20.51
2018-09-17T09:14:25.512Z,20.31
2018-09-17T09:17:29.228Z,19.97
2018-09-17T09:20:32.987Z,19.80
2018-09-17T09:23:36.601Z,19.57
2018-09-17T09:26:40.236Z,19.66
2018-09-17T09:29:44.015Z,19.60
2018-09-17T09:32:47.721Z,19.79
2018-09-17T09:35:51.315Z,19.99
2018-09-17T09:38:55.022Z,19.96
2018-09-17T09:41:58.742Z,20.41
2018-09-17T09:45:02.497Z,21.02
2018-09-17T09:48:06.249Z,21.18
2018-09-17T09:51:09.912Z,21.42
2018-09-17T09:54:13.565Z,20.87
2018-09-17T09:57:17.337Z,21.09
2018-09-17T10:00:26.600Z,21.30
2018-09-17T10:03:30.300Z,21.25
2018-09-17T10:06:34.041Z,21.60
2018-09-17T10:09:42.806Z,21.32
2018-09-17T10:12:51.656Z,21.60
2018-09-17T10:15:56.876Z,21.76
2018-09-17T10:19:05.806Z,21.83
2018-09-17T10:22:09.367Z,21.96
2018-09-17T10:25:13.077Z,21.92
2018-09-17T10:28:16.788Z,21.95
2018-09-17T10:31:20.445Z,22.40
2018-09-17T10:34:24.055Z,22.23
2018-09-17T10:37:27.766Z,22.21
2018-09-17T10:40:31.317Z,22.31
2018-09-17T10:43:35.101Z,22.47
2018-09-17T10:46:38.932Z,22.49
2018-09-17T10:49:42.568Z,22.56
2018-09-17T10:52:46.206Z,22.66
2018-09-17T10:55:49.903Z,22.60
2018-09-17T10:58:53.602Z,22.58
2018-09-17T11:01:57.224Z,22.51
2018-09-17T11:05:00.935Z,22.46
2018-09-17T11:08:04.985Z,22.46
2018-09-17T11:11:08.706Z,22.42
2018-09-17T11:14:12.420Z,22.29
2018-09-17T11:17:16.122Z,22.46
2018-09-17T11:20:19.857Z,22.47
2018-09-17T11:23:23.480Z,22.75
2018-09-17T11:26:27.131Z,22.73
2018-09-17T11:29:30.873Z,22.63
2018-09-17T11:32:34.578Z,22.86
2018-09-17T11:35:38.244Z,22.75
2018-09-17T11:38:41.906Z,22.83
2018-09-17T11:41:45.870Z,22.91
2018-09-17T11:44:49.686Z,23.07
2018-09-17T11:47:53.271Z,23.03
2018-09-17T11:50:57.122Z,23.01
2018-09-17T11:54:00.823Z,22.92
2018-09-17T11:57:04.679Z,22.92
2018-09-17T12:00:08.598Z,22.86
2018-09-17T12:03:17.313Z,23.11
2018-09-17T12:06:26.191Z,23.21
2018-09-17T12:09:30.028Z,23.23
2018-09-17T12:12:33.771Z,23.25
2018-09-17T12:15:40.883Z,23.24
2018-09-17T12:18:44.591Z,23.26
2018-09-17T12:21:48.414Z,23.35
2018-09-17T12:24:52.135Z,23.28
2018-09-17T12:27:55.828Z,23.29
2018-09-17T12:30:59.532Z,23.36
2018-09-17T12:34:03.203Z,23.46
2018-09-17T12:37:06.847Z,23.49
2018-09-17T12:40:10.484Z,23.40
2018-09-17T12:43:14.162Z,23.43
2018-09-17T12:46:17.852Z,23.62
2018-09-17T12:49:21.465Z,23.62
2018-09-17T12:52:25.097Z,23.67
2018-09-17T12:55:28.826Z,23.57
2018-09-17T12:58:32.575Z,23.76
2018-09-17T13:01:36.237Z,23.86
2018-09-17T13:04:39.913Z,23.82
2018-09-17T13:07:43.571Z,23.91
2018-09-17T13:10:47.352Z,24.12
2018-09-17T13:13:51.096Z,24.14
2018-09-17T13:16:54.764Z,24.28
2018-09-17T13:19:58.431Z,24.28
2018-09-17T13:23:02.072Z,24.35
2018-09-17T13:26:05.817Z,24.36
2018-09-17T13:29:09.592Z,24.29
2018-09-17T13:32:13.222Z,24.36
2018-09-17T13:35:16.871Z,24.32
2018-09-17T13:38:20.592Z,24.43
2018-09-17T13:41:24.302Z,24.55
2018-09-17T13:44:28.242Z,24.57
2018-09-17T13:47:32.318Z,24.61
2018-09-17T13:50:36.382Z,24.54
2018-09-17T13:53:40.473Z,24.87
2018-09-17T13:56:44.200Z,24.75
2018-09-17T13:59:48.051Z,24.85
2018-09-17T14:02:51.788Z,24.88
2018-09-17T14:05:55.475Z,25.04
2018-09-17T14:08:59.115Z,24.93
2018-09-17T14:12:02.820Z,24.82
2018-09-17T14:15:06.641Z,24.91
2018-09-17T14:18:10.383Z,24.78
2018-09-17T14:21:15.139Z,24.62
2018-09-17T14:24:18.959Z,24.47
2018-09-17T14:27:22.770Z,24.38
2018-09-17T14:30:26.638Z,24.51
2018-09-17T14:33:35.616Z,24.50
2018-09-17T14:36:39.286Z,24.35
2018-09-17T14:39:43.068Z,24.14
2018-09-17T14:42:46.913Z,24.25
2018-09-17T14:45:50.573Z,24.36
2018-09-17T14:48:54.322Z,24.38
2018-09-17T14:51:58.336Z,24.39
2018-09-17T14:55:02.007Z,24.27
2018-09-17T14:58:05.985Z,24.24
2018-09-17T15:01:09.656Z,24.27
2018-09-17T15:04:13.406Z,24.46
2018-09-17T15:07:17.080Z,24.34
2018-09-17T15:10:20.906Z,24.14
2018-09-17T15:13:24.486Z,24.12
2018-09-17T15:16:28.326Z,24.12
2018-09-17T15:19:31.978Z,24.11
2018-09-17T15:22:35.801Z,24.04
2018-09-17T15:25:39.762Z,23.60
2018-09-17T15:28:43.607Z,23.45
2018-09-17T15:31:47.811Z,23.56
2018-09-17T15:34:51.518Z,23.45
2018-09-17T15:37:55.291Z,23.51
2018-09-17T15:41:01.006Z,23.59
2018-09-17T15:44:04.803Z,23.67
2018-09-17T15:47:08.696Z,23.37
2018-09-17T15:50:12.369Z,23.20
2018-09-17T15:53:16.048Z,23.05
2018-09-17T15:56:19.828Z,23.13
2018-09-17T15:59:23.532Z,23.36
2018-09-17T16:02:27.480Z,23.23
2018-09-17T16:05:31.200Z,22.98
2018-09-17T16:08:35.067Z,22.66
2018-09-17T16:11:39.022Z,22.57
2018-09-17T16:14:42.957Z,22.52
2018-09-17T16:17:46.830Z,22.26
2018-09-17T16:20:50.562Z,22.05
2018-09-17T16:23:54.351Z,21.87
2018-09-17T16:26:58.526Z,21.80
2018-09-17T16:30:02.420Z,21.63
2018-09-17T16:33:06.226Z,21.60
2018-09-17T16:36:10.873Z,21.37
2018-09-17T16:39:14.576Z,21.21
2018-09-17T16:42:19.083Z,21.08
2018-09-17T16:45:22.764Z,20.93
2018-09-17T16:48:26.531Z,20.80
2018-09-17T16:51:30.529Z,20.71
2018-09-17T16:54:35.006Z,20.61
2018-09-17T16:57:38.732Z,20.46
2018-09-17T17:00:42.420Z,20.32
2018-09-17T17:03:46.120Z,20.18
2018-09-17T17:06:50.233Z,20.09
2018-09-17T17:09:54.134Z,19.99
2018-09-17T17:12:57.877Z,19.83
2018-09-17T17:16:01.703Z,19.80
2018-09-17T17:19:05.463Z,19.69
2018-09-17T17:22:09.243Z,19.58
2018-09-17T17:25:13.143Z,19.45
2018-09-17T17:28:17.358Z,19.36
2018-09-17T17:31:21.133Z,19.27
2018-09-17T17:34:25.782Z,19.15
2018-09-17T17:37:30.039Z,19.12
2018-09-17T17:40:34.172Z,18.99
2018-09-17T17:43:37.911Z,19.02
2018-09-17T17:46:41.716Z,19.09
2018-09-17T17:49:46.244Z,18.95
2018-09-17T17:52:50.056Z,18.92
2018-09-17T17:55:53.881Z,18.83
2018-09-17T17:58:57.603Z,18.96
2018-09-17T18:02:01.440Z,18.86
2018-09-17T18:05:05.358Z,18.78
2018-09-17T18:08:09.659Z,18.85
2018-09-17T18:11:13.316Z,18.76
2018-09-17T18:14:17.156Z,18.77
2018-09-17T18:17:20.918Z,18.76
2018-09-17T18:20:24.747Z,18.88
2018-09-17T18:23:28.521Z,18.89
2018-09-17T18:26:32.273Z,18.85
2018-09-17T18:29:35.977Z,18.86
2018-09-17T18:32:39.798Z,18.54
2018-09-17T18:35:43.609Z,18.63
2018-09-17T18:38:47.486Z,18.64
2018-09-17T18:41:51.155Z,18.53
2018-09-17T18:44:55.068Z,18.65
2018-09-17T18:47:58.809Z,18.52
2018-09-17T18:51:02.709Z,18.65
2018-09-17T18:54:06.666Z,18.59
2018-09-17T18:57:10.546Z,18.44
2018-09-17T19:00:14.391Z,18.43
2018-09-17T19:03:18.336Z,18.54
2018-09-17T19:06:22.141Z,18.58
2018-09-17T19:09:30.951Z,18.66
2018-09-17T19:12:34.847Z,18.54
2018-09-17T19:15:43.655Z,18.41
2018-09-17T19:18:47.436Z,18.39
2018-09-17T19:21:56.519Z,18.35
2018-09-17T19:25:00.200Z,18.58
2018-09-17T19:28:08.993Z,18.66
2018-09-17T19:31:12.761Z,18.61
2018-09-17T19:34:16.808Z,18.78
2018-09-17T19:37:25.572Z,18.78
2018-09-17T19:40:29.331Z,18.68
2018-09-17T19:43:33.100Z,18.43
2018-09-17T19:46:36.754Z,18.40
2018-09-17T19:49:40.598Z,18.56
2018-09-17T19:52:44.238Z,18.71
2018-09-17T19:55:48.531Z,18.56
2018-09-17T19:58:57.367Z,18.30
2018-09-17T20:02:01.197Z,18.23
2018-09-17T20:05:10.341Z,18.19
2018-09-17T20:08:14.373Z,18.26
2018-09-17T20:11:18.236Z,18.59
2018-09-17T20:14:21.952Z,18.62
2018-09-17T20:17:25.696Z,18.54
2018-09-17T20:20:29.428Z,18.71
2018-09-17T20:23:33.177Z,18.68
2018-09-17T20:26:36.822Z,18.80
2018-09-17T20:29:40.500Z,18.78
2018-09-17T20:32:44.416Z,18.91
2018-09-17T20:35:48.275Z,19.06
2018-09-17T20:38:51.995Z,18.93
2018-09-17T20:41:55.797Z,18.88
2018-09-17T20:44:59.600Z,18.96
2018-09-17T20:48:03.658Z,18.85
2018-09-17T20:51:08.081Z,18.64
2018-09-17T20:54:11.792Z,18.73
2018-09-17T20:57:15.574Z,18.56
2018-09-17T21:00:19.293Z,18.56
2018-09-17T21:03:22.960Z,18.55
2018-09-17T21:06:26.743Z,18.33
2018-09-17T21:09:30.489Z,18.33
2018-09-17T21:12:34.112Z,18.37
2018-09-17T21:15:37.989Z,18.36
2018-09-17T21:18:41.710Z,18.50
2018-09-17T21:21:45.418Z,18.64
2018-09-17T21:24:49.231Z,18.62
2018-09-17T21:27:52.895Z,18.80
2018-09-17T21:30:56.555Z,18.47
2018-09-17T21:34:00.216Z,18.91
2018-09-17T21:37:03.806Z,19.10
2018-09-17T21:40:07.546Z,19.27
2018-09-17T21:43:11.290Z,19.25
2018-09-17T21:46:14.940Z,19.43
2018-09-17T21:49:18.516Z,19.01
2018-09-17T21:52:22.257Z,19.08
2018-09-17T21:55:25.961Z,19.40
2018-09-17T21:58:29.637Z,19.65
2018-09-17T22:01:33.297Z,19.58
2018-09-17T22:04:37.008Z,19.58
2018-09-17T22:07:40.732Z,19.59
2018-09-17T22:10:44.355Z,19.73
2018-09-17T22:13:48.014Z,19.40
2018-09-17T22:16:51.615Z,19.44
2018-09-17T22:19:55.455Z,19.30
2018-09-17T22:22:58.995Z,19.39
2018-09-17T22:26:02.720Z,19.12
2018-09-17T22:29:06.593Z,19.13
2018-09-17T22:32:10.113Z,19.33
2018-09-17T22:35:13.799Z,19.14
2018-09-17T22:38:17.553Z,19.10
2018-09-17T22:41:21.085Z,18.74
2018-09-17T22:44:24.751Z,18.81
2018-09-17T22:47:28.455Z,18.85
2018-09-17T22:50:32.141Z,18.67
2018-09-17T22:53:35.895Z,18.86
2018-09-17T22:56:39.567Z,18.68
2018-09-17T22:59:43.225Z,19.01
2018-09-17T23:02:46.946Z,18.84
2018-09-17T23:05:50.595Z,18.59
2018-09-17T23:08:54.213Z,18.66
2018-09-17T23:11:57.915Z,18.89
2018-09-17T23:15:01.627Z,18.98
2018-09-17T23:18:05.271Z,18.79
2018-09-17T23:21:08.945Z,18.95
2018-09-17T23:24:12.676Z,18.55
2018-09-17T23:27:16.369Z,18.61
2018-09-17T23:30:20.062Z,18.24
2018-09-17T23:33:23.849Z,18.26
2018-09-17T23:36:27.466Z,18.55
2018-09-17T23:39:31.046Z,18.37
2018-09-17T23:42:34.660Z,18.14
2018-09-17T23:45:38.345Z,18.46
2018-09-17T23:48:41.964Z,18.44
2018-09-17T23:51:45.776Z,18.42
2018-09-17T23:54:49.338Z,18.23
2018-09-17T23:57:52.919Z,18.40
